Time;durP1;ratioP1;P1;durP2;ratioP2;P2;SDS_P1;SDS_P2;PMS_P1;PMS_P2;Temp;Humidity;BMP_temperature;BMP_pressure;BME280_temperature;BME280_humidity;BME280_pressure;Samples;Min_cycle;Max_cycle;Signal;HPM_P1;HPM_P2
2021/05/03 00:01:14;;;;;;;7.80;3.23;;;;;;;;;;5118291;27;20215;-62
2021/05/03 00:03:40;;;;;;;5.00;4.60;;;;;;;;;;5099949;27;20217;-62
2021/05/03 00:06:06;;;;;;;4.60;3.97;;;;;;;;;;5109224;27;20650;-62
2021/05/03 00:08:31;;;;;;;6.23;4.50;;;;;;;;;;5117528;28;20466;-62
2021/05/03 00:10:56;;;;;;;6.40;3.60;;;;;;;;;;5117814;27;20651;-62
2021/05/03 00:13:22;;;;;;;4.73;3.90;;;;;;;;;;5117246;27;20345;-62
2021/05/03 00:15:47;;;;;;;7.10;4.87;;;;;;;;;;5118100;27;20211;-61
2021/05/03 00:18:12;;;;;;;5.37;4.87;;;;;;;;;;5116616;28;20280;-61
2021/05/03 00:20:38;;;;;;;4.73;4.33;;;;;;;;;;5117629;27;20294;-61
2021/05/03 00:23:03;;;;;;;4.93;4.10;;;;;;;;;;5118407;27;20216;-63
2021/05/03 00:25:29;;;;;;;4.87;3.67;;;;;;;;;;5117984;27;20651;-61
2021/05/03 00:27:54;;;;;;;4.00;3.70;;;;;;;;;;5117269;28;20232;-62
2021/05/03 00:30:20;;;;;;;6.57;4.87;;;;;;;;;;5118282;27;20219;-61
2021/05/03 00:32:45;;;;;;;5.33;4.70;;;;;;;;;;5118138;27;20716;-62
2021/05/03 00:35:11;;;;;;;5.00;4.50;;;;;;;;;;5117709;27;20271;-62
2021/05/03 00:37:37;;;;;;;6.10;5.30;;;;;;;;;;5116956;27;20264;-62
2021/05/03 00:40:03;;;;;;;5.77;4.50;;;;;;;;;;5118048;27;20941;-62
2021/05/03 00:42:29;;;;;;;7.40;5.80;;;;;;;;;;5117529;27;20645;-63
2021/05/03 00:44:54;;;;;;;5.97;4.20;;;;;;;;;;5117547;27;20467;-61
2021/05/03 00:47:20;;;;;;;4.50;4.07;;;;;;;;;;5117306;27;20568;-62
2021/05/03 00:49:46;;;;;;;5.93;3.90;;;;;;;;;;5117837;27;20219;-61
2021/05/03 00:52:12;;;;;;;4.67;3.63;;;;;;;;;;5117983;27;20848;-62
2021/05/03 00:54:39;;;;;;;5.10;3.90;;;;;;;;;;5117375;27;20556;-61
2021/05/03 00:57:05;;;;;;;8.30;4.40;;;;;;;;;;5118110;27;20787;-61
2021/05/03 00:59:30;;;;;;;7.77;3.93;;;;;;;;;;5116078;27;20501;-62
2021/05/03 01:01:55;;;;;;;7.40;4.13;;;;;;;;;;5115996;28;20548;-61
2021/05/03 01:04:21;;;;;;;5.33;3.70;;;;;;;;;;5117044;27;20240;-61
2021/05/03 01:06:46;;;;;;;6.27;3.97;;;;;;;;;;5117097;27;20223;-62
2021/05/03 01:09:11;;;;;;;4.70;3.27;;;;;;;;;;5117464;27;20331;-62
2021/05/03 01:11:37;;;;;;;6.70;3.90;;;;;;;;;;5116731;27;20332;-62
2021/05/03 01:14:03;;;;;;;6.70;3.80;;;;;;;;;;5117336;27;20215;-62
2021/05/03 01:16:28;;;;;;;4.67;4.03;;;;;;;;;;5117123;27;20457;-61
2021/05/03 01:18:54;;;;;;;6.07;4.13;;;;;;;;;;5116588;28;20233;-62
2021/05/03 01:21:26;;;;;;;4.67;3.60;;;;;;;;;;5116981;27;20306;-62
2021/05/03 01:23:52;;;;;;;7.33;3.97;;;;;;;;;;5116468;27;20222;-63
2021/05/03 01:26:17;;;;;;;4.43;3.30;;;;;;;;;;5116765;27;20461;-62
2021/05/03 01:28:42;;;;;;;4.07;3.50;;;;;;;;;;5116118;27;20234;-62
2021/05/03 01:31:07;;;;;;;4.93;3.90;;;;;;;;;;5116429;27;20588;-61
2021/05/03 01:33:33;;;;;;;5.80;4.30;;;;;;;;;;5116109;27;20707;-61
2021/05/03 01:35:58;;;;;;;4.77;4.13;;;;;;;;;;5116676;27;20533;-62
2021/05/03 01:38:23;;;;;;;5.30;4.00;;;;;;;;;;5116164;27;20310;-61
2021/05/03 01:40:49;;;;;;;7.03;4.07;;;;;;;;;;5115616;27;20235;-62
2021/05/03 01:43:16;;;;;;;6.17;3.50;;;;;;;;;;5115481;28;20222;-61
2021/05/03 01:45:43;;;;;;;5.50;4.00;;;;;;;;;;5116117;27;20219;-62
2021/05/03 01:48:10;;;;;;;4.13;3.63;;;;;;;;;;5116082;27;20516;-62
2021/05/03 01:50:36;;;;;;;5.53;3.67;;;;;;;;;;5116218;27;20932;-61
2021/05/03 01:53:02;;;;;;;4.60;4.20;;;;;;;;;;5116974;27;20453;-62
2021/05/03 01:55:28;;;;;;;5.53;4.53;;;;;;;;;;5115834;28;20218;-62
2021/05/03 01:57:53;;;;;;;5.20;4.70;;;;;;;;;;5115123;28;20452;-63
2021/05/03 02:00:18;;;;;;;5.53;5.03;;;;;;;;;;5116637;27;20470;-63
2021/05/03 02:02:47;;;;;;;5.07;4.43;;;;;;;;;;5116184;27;20650;-61
2021/05/03 02:05:17;;;;;;;6.67;4.60;;;;;;;;;;5116598;27;20687;-62
2021/05/03 02:07:42;;;;;;;9.40;5.10;;;;;;;;;;5116006;27;20456;-63
2021/05/03 02:10:07;;;;;;;5.60;4.13;;;;;;;;;;5116014;27;20460;-62
2021/05/03 02:12:36;;;;;;;5.03;4.63;;;;;;;;;;5116553;27;20232;-62
2021/05/03 02:15:02;;;;;;;5.97;5.17;;;;;;;;;;5116756;27;20211;-63
2021/05/03 02:17:27;;;;;;;10.23;5.20;;;;;;;;;;5116716;27;20536;-63
2021/05/03 02:19:52;;;;;;;10.90;5.43;;;;;;;;;;5116406;27;20211;-63
2021/05/03 02:22:18;;;;;;;10.10;5.00;;;;;;;;;;5116609;27;20310;-62
2021/05/03 02:24:43;;;;;;;6.43;4.57;;;;;;;;;;5116180;27;20660;-63
2021/05/03 02:27:09;;;;;;;7.60;4.40;;;;;;;;;;5115873;27;20303;-63
2021/05/03 02:29:35;;;;;;;4.80;4.40;;;;;;;;;;5116110;27;20215;-62
2021/05/03 02:32:00;;;;;;;10.93;5.60;;;;;;;;;;5116681;27;20818;-62
2021/05/03 02:34:25;;;;;;;6.37;4.33;;;;;;;;;;5116126;27;20302;-63
2021/05/03 02:36:55;;;;;;;4.77;4.33;;;;;;;;;;5115757;27;20242;-62
2021/05/03 02:39:20;;;;;;;6.70;5.27;;;;;;;;;;5116148;27;20622;-62
2021/05/03 02:41:45;;;;;;;7.57;4.70;;;;;;;;;;5115273;27;20464;-62
2021/05/03 02:44:11;;;;;;;5.37;4.60;;;;;;;;;;5115883;27;20326;-62
2021/05/03 02:46:36;;;;;;;6.13;5.07;;;;;;;;;;5115660;27;20211;-63
2021/05/03 02:49:01;;;;;;;5.80;4.50;;;;;;;;;;5115978;27;20680;-62
2021/05/03 02:51:27;;;;;;;5.57;4.40;;;;;;;;;;5116241;27;20219;-62
2021/05/03 02:53:52;;;;;;;8.00;5.30;;;;;;;;;;5116185;27;20219;-62
2021/05/03 02:56:18;;;;;;;8.67;5.13;;;;;;;;;;5116738;27;20538;-62
2021/05/03 02:58:43;;;;;;;6.30;4.80;;;;;;;;;;5115071;27;20301;-63
2021/05/03 03:01:08;;;;;;;7.40;5.10;;;;;;;;;;5115955;27;20207;-63
2021/05/03 03:03:33;;;;;;;5.43;4.63;;;;;;;;;;5116220;27;20214;-62
2021/05/03 03:05:59;;;;;;;6.40;4.33;;;;;;;;;;5116368;27;20736;-62
2021/05/03 03:08:24;;;;;;;8.13;5.20;;;;;;;;;;5114799;28;20219;-63
2021/05/03 03:10:49;;;;;;;5.20;4.70;;;;;;;;;;5116074;27;20214;-62
2021/05/03 03:13:15;;;;;;;6.93;5.13;;;;;;;;;;5116741;27;20215;-62
2021/05/03 03:15:40;;;;;;;7.53;4.93;;;;;;;;;;5116083;27;20241;-62
2021/05/03 03:18:06;;;;;;;5.80;4.60;;;;;;;;;;5116494;27;20223;-62
2021/05/03 03:20:31;;;;;;;5.00;4.23;;;;;;;;;;5115535;28;20671;-62
2021/05/03 03:22:56;;;;;;;5.80;4.67;;;;;;;;;;5114601;27;20538;-62
2021/05/03 03:25:22;;;;;;;5.30;4.80;;;;;;;;;;5116091;27;20212;-62
2021/05/03 03:27:48;;;;;;;6.00;4.50;;;;;;;;;;5115542;27;20217;-62
2021/05/03 03:30:15;;;;;;;7.67;4.70;;;;;;;;;;5117692;27;20441;-63
2021/05/03 03:32:44;;;;;;;5.90;4.70;;;;;;;;;;5118914;27;20222;-63
2021/05/03 03:35:14;;;;;;;5.67;4.23;;;;;;;;;;5119098;27;20446;-62
2021/05/03 03:37:40;;;;;;;6.73;4.17;;;;;;;;;;5118940;27;20790;-61
2021/05/03 03:40:06;;;;;;;6.93;4.40;;;;;;;;;;5119290;27;20460;-62
2021/05/03 03:42:31;;;;;;;5.20;4.70;;;;;;;;;;5119403;27;20274;-62
2021/05/03 03:44:58;;;;;;;9.30;5.90;;;;;;;;;;5119187;27;20506;-64
2021/05/03 03:47:23;;;;;;;5.10;4.60;;;;;;;;;;5118797;28;20215;-62
2021/05/03 03:49:48;;;;;;;8.40;4.57;;;;;;;;;;5118142;27;20463;-63
2021/05/03 03:52:14;;;;;;;4.50;4.10;;;;;;;;;;5119042;28;20578;-63
2021/05/03 03:54:39;;;;;;;8.63;3.83;;;;;;;;;;5119165;27;20230;-63
2021/05/03 03:57:04;;;;;;;4.47;3.77;;;;;;;;;;5119606;27;20218;-63
2021/05/03 03:59:33;;;;;;;7.00;4.83;;;;;;;;;;5119452;27;20219;-62
2021/05/03 04:01:58;;;;;;;4.90;3.87;;;;;;;;;;5118095;27;20229;-63
2021/05/03 04:04:27;;;;;;;5.60;4.27;;;;;;;;;;5119882;27;20459;-63
2021/05/03 04:09:58;;;;;;;7.40;4.20;;;;;;;;;;5118399;27;20836;-62
2021/05/03 04:21:12;;;;;;;13.30;10.47;;;;;;;;;;5119708;27;20460;-64
2021/05/03 04:26:23;;;;;;;7.70;5.30;;;;;;;;;;5118997;27;20980;-59
2021/05/03 04:28:50;;;;;;;5.90;4.80;;;;;;;;;;5113499;27;20833;-63
2021/05/03 04:31:16;;;;;;;5.33;3.93;;;;;;;;;;5109899;27;20481;-63
2021/05/03 04:33:41;;;;;;;5.33;4.83;;;;;;;;;;5116981;27;20942;-63
2021/05/03 04:36:07;;;;;;;8.93;4.53;;;;;;;;;;5117775;27;20467;-64
2021/05/03 04:38:33;;;;;;;6.60;4.50;;;;;;;;;;5117124;27;20257;-63
2021/05/03 04:40:58;;;;;;;6.13;5.60;;;;;;;;;;5104002;27;20278;-64
2021/05/03 04:43:23;;;;;;;5.43;4.90;;;;;;;;;;5109060;27;20262;-64
2021/05/03 04:45:48;;;;;;;8.73;5.77;;;;;;;;;;5109628;27;20215;-63
2021/05/03 04:48:14;;;;;;;5.97;4.60;;;;;;;;;;5104180;27;20223;-63
2021/05/03 04:50:40;;;;;;;5.33;4.20;;;;;;;;;;5105752;27;20534;-63
2021/05/03 04:53:05;;;;;;;5.97;4.80;;;;;;;;;;5110372;27;20220;-64
2021/05/03 04:55:31;;;;;;;6.57;5.33;;;;;;;;;;5108042;27;20956;-64
2021/05/03 04:57:56;;;;;;;4.97;4.13;;;;;;;;;;5103403;27;20231;-62
2021/05/03 05:00:22;;;;;;;10.70;5.93;;;;;;;;;;5106887;27;20220;-63
2021/05/03 05:02:48;;;;;;;6.13;4.37;;;;;;;;;;5114019;27;20327;-64
2021/05/03 05:05:13;;;;;;;6.67;5.00;;;;;;;;;;5117444;27;20456;-63
2021/05/03 05:07:40;;;;;;;7.50;5.60;;;;;;;;;;5102445;27;20280;-64
2021/05/03 05:10:07;;;;;;;7.60;5.50;;;;;;;;;;5105742;27;20597;-63
2021/05/03 05:12:35;;;;;;;7.70;6.90;;;;;;;;;;5109221;27;20466;-63
2021/05/03 05:15:00;;;;;;;6.50;4.50;;;;;;;;;;5108328;27;20457;-64
2021/05/03 05:17:26;;;;;;;10.23;6.53;;;;;;;;;;5102288;27;20801;-64
2021/05/03 05:19:51;;;;;;;7.23;5.93;;;;;;;;;;5104350;27;20696;-63
2021/05/03 05:22:17;;;;;;;9.63;6.10;;;;;;;;;;5109746;27;20318;-63
2021/05/03 05:24:45;;;;;;;8.40;4.40;;;;;;;;;;5106881;27;20215;-64
2021/05/03 05:27:11;;;;;;;6.10;4.47;;;;;;;;;;5101227;28;20306;-64
2021/05/03 05:29:36;;;;;;;6.40;4.30;;;;;;;;;;5115838;27;20567;-63
2021/05/03 05:32:02;;;;;;;5.10;4.20;;;;;;;;;;5115606;27;20215;-63
2021/05/03 05:34:27;;;;;;;7.70;5.20;;;;;;;;;;5116266;27;20597;-63
2021/05/03 05:36:52;;;;;;;4.90;4.40;;;;;;;;;;5107487;27;20220;-62
2021/05/03 05:39:18;;;;;;;7.80;4.73;;;;;;;;;;5116595;27;20255;-63
2021/05/03 05:41:43;;;;;;;7.40;4.40;;;;;;;;;;5102520;27;20541;-64
2021/05/03 05:44:09;;;;;;;6.90;4.03;;;;;;;;;;5105871;27;20235;-63
2021/05/03 05:46:36;;;;;;;8.20;4.33;;;;;;;;;;5108363;27;20227;-61
2021/05/03 05:49:01;;;;;;;5.50;4.30;;;;;;;;;;5105757;27;20938;-63
2021/05/03 05:51:26;;;;;;;4.47;3.63;;;;;;;;;;5102510;27;20457;-63
2021/05/03 05:53:52;;;;;;;9.03;4.67;;;;;;;;;;5104226;27;20215;-63
2021/05/03 05:56:17;;;;;;;4.97;4.10;;;;;;;;;;5109226;27;20214;-63
2021/05/03 05:58:42;;;;;;;6.07;4.83;;;;;;;;;;5103594;27;20242;-63
2021/05/03 06:01:07;;;;;;;9.70;4.63;;;;;;;;;;5102172;27;20306;-63
2021/05/03 06:03:33;;;;;;;8.07;5.23;;;;;;;;;;5115524;27;20314;-61
2021/05/03 06:05:58;;;;;;;6.67;4.57;;;;;;;;;;5101916;27;20222;-63
2021/05/03 06:08:24;;;;;;;11.60;4.83;;;;;;;;;;5119524;27;20644;-63
2021/05/03 06:10:49;;;;;;;8.00;5.10;;;;;;;;;;5102103;27;20270;-64
2021/05/03 06:13:15;;;;;;;7.50;3.73;;;;;;;;;;5106969;27;20835;-62
2021/05/03 06:15:40;;;;;;;3.90;3.57;;;;;;;;;;5108673;27;20227;-64
2021/05/03 06:18:06;;;;;;;4.73;4.07;;;;;;;;;;5102593;27;20222;-63
2021/05/03 06:20:31;;;;;;;8.20;4.60;;;;;;;;;;5102097;27;20227;-63
2021/05/03 06:23:01;;;;;;;7.10;4.57;;;;;;;;;;5109648;27;20299;-63
2021/05/03 06:25:27;;;;;;;4.20;3.83;;;;;;;;;;5101459;27;20277;-63
2021/05/03 06:27:52;;;;;;;4.50;4.10;;;;;;;;;;5110013;27;20986;-64
2021/05/03 06:30:18;;;;;;;5.27;4.07;;;;;;;;;;5111318;27;20238;-64
2021/05/03 06:32:43;;;;;;;10.17;3.30;;;;;;;;;;5108010;27;20216;-63
2021/05/03 06:35:09;;;;;;;5.27;3.83;;;;;;;;;;5106227;27;20553;-63
2021/05/03 06:37:34;;;;;;;4.37;3.97;;;;;;;;;;5112250;27;20228;-63
2021/05/03 06:39:59;;;;;;;8.40;3.53;;;;;;;;;;5108207;27;20224;-64
2021/05/03 06:42:24;;;;;;;4.47;3.63;;;;;;;;;;5108784;27;20652;-64
2021/05/03 06:44:50;;;;;;;6.57;4.23;;;;;;;;;;5105123;27;20236;-63
2021/05/03 06:47:16;;;;;;;4.47;3.53;;;;;;;;;;5102361;27;20366;-61
2021/05/03 06:49:41;;;;;;;6.80;4.03;;;;;;;;;;5105086;27;20232;-62
2021/05/03 06:52:06;;;;;;;4.60;3.80;;;;;;;;;;5107917;27;20543;-61
2021/05/03 06:54:32;;;;;;;5.70;4.10;;;;;;;;;;5105545;27;20218;-62
2021/05/03 06:56:57;;;;;;;4.40;3.80;;;;;;;;;;5104946;27;20323;-62
2021/05/03 06:59:23;;;;;;;7.33;4.07;;;;;;;;;;5106561;27;20236;-61
2021/05/03 07:01:49;;;;;;;4.30;3.90;;;;;;;;;;5108352;27;20682;-62
2021/05/03 07:04:14;;;;;;;4.50;3.90;;;;;;;;;;5104430;27;20466;-62
2021/05/03 07:06:39;;;;;;;6.50;3.20;;;;;;;;;;5104891;27;20564;-62
2021/05/03 07:09:08;;;;;;;7.47;3.70;;;;;;;;;;5111173;27;20224;-62
2021/05/03 07:11:34;;;;;;;4.33;3.20;;;;;;;;;;5112596;27;20624;-63
2021/05/03 07:13:59;;;;;;;6.23;4.03;;;;;;;;;;5106794;27;20502;-61
2021/05/03 07:16:24;;;;;;;3.60;2.40;;;;;;;;;;5105672;27;20220;-62
2021/05/03 07:18:50;;;;;;;4.00;3.03;;;;;;;;;;5111036;27;20317;-62
2021/05/03 07:21:15;;;;;;;6.13;4.20;;;;;;;;;;5112612;27;20621;-62
2021/05/03 07:23:40;;;;;;;4.93;2.80;;;;;;;;;;5106043;27;20303;-62
2021/05/03 07:26:07;;;;;;;2.30;2.10;;;;;;;;;;5119558;28;20294;-62
2021/05/03 07:28:32;;;;;;;8.13;3.03;;;;;;;;;;5113379;27;20247;-62
2021/05/03 07:30:58;;;;;;;4.10;3.10;;;;;;;;;;5114086;27;20462;-62
2021/05/03 07:33:25;;;;;;;2.93;2.63;;;;;;;;;;5111240;27;20221;-62
2021/05/03 07:35:50;;;;;;;4.57;2.70;;;;;;;;;;5114652;27;20462;-63
2021/05/03 07:38:15;;;;;;;3.17;2.80;;;;;;;;;;5119339;27;20797;-63
2021/05/03 07:40:41;;;;;;;4.80;3.50;;;;;;;;;;5114761;27;20260;-62
2021/05/03 07:43:06;;;;;;;3.50;2.97;;;;;;;;;;5107850;27;20559;-63
2021/05/03 07:45:31;;;;;;;4.20;2.97;;;;;;;;;;5105321;27;20228;-63
2021/05/03 07:47:56;;;;;;;7.93;3.03;;;;;;;;;;5109310;27;20230;-62
2021/05/03 07:50:22;;;;;;;6.40;3.90;;;;;;;;;;5112356;27;20710;-63
2021/05/03 07:52:47;;;;;;;5.87;3.20;;;;;;;;;;5107187;27;20232;-64
2021/05/03 07:55:12;;;;;;;4.57;3.40;;;;;;;;;;5104879;27;20372;-63
2021/05/03 07:57:38;;;;;;;4.50;3.53;;;;;;;;;;5109474;27;20581;-63
2021/05/03 08:00:05;;;;;;;6.27;3.77;;;;;;;;;;5115572;27;20225;-62
2021/05/03 08:02:30;;;;;;;4.63;3.00;;;;;;;;;;5105963;27;20245;-63
2021/05/03 08:04:55;;;;;;;4.10;2.90;;;;;;;;;;5103816;27;20446;-63
2021/05/03 08:07:20;;;;;;;4.40;3.20;;;;;;;;;;5114471;27;20366;-63
2021/05/03 08:09:46;;;;;;;3.73;2.80;;;;;;;;;;5117600;27;20228;-61
2021/05/03 08:12:11;;;;;;;3.43;3.13;;;;;;;;;;5117844;27;20641;-62
2021/05/03 08:14:37;;;;;;;4.03;2.57;;;;;;;;;;5117532;27;20217;-63
2021/05/03 08:17:06;;;;;;;3.73;2.53;;;;;;;;;;5116398;27;20250;-63
2021/05/03 08:19:32;;;;;;;4.47;3.23;;;;;;;;;;5104075;27;20283;-62
2021/05/03 08:21:59;;;;;;;4.07;2.63;;;;;;;;;;5108922;27;20462;-63
2021/05/03 08:24:24;;;;;;;4.87;2.07;;;;;;;;;;5112239;27;20434;-63
2021/05/03 08:26:49;;;;;;;2.97;2.67;;;;;;;;;;5116716;27;20954;-63
2021/05/03 08:29:15;;;;;;;4.13;2.80;;;;;;;;;;5101985;28;20230;-63
2021/05/03 08:31:40;;;;;;;4.53;3.17;;;;;;;;;;5117067;28;20641;-63
2021/05/03 08:34:05;;;;;;;3.90;2.80;;;;;;;;;;5115199;27;20351;-63
2021/05/03 08:36:31;;;;;;;3.27;2.73;;;;;;;;;;5104494;27;20294;-63
2021/05/03 08:38:56;;;;;;;4.93;3.40;;;;;;;;;;5116196;27;20235;-64
2021/05/03 08:41:21;;;;;;;5.93;4.23;;;;;;;;;;5117294;27;20219;-63
2021/05/03 08:43:49;;;;;;;3.30;2.50;;;;;;;;;;5116396;27;20676;-63
2021/05/03 08:46:26;;;;;;;3.93;2.87;;;;;;;;;;5108631;27;20229;-63
2021/05/03 08:48:59;;;;;;;3.87;2.70;;;;;;;;;;5112671;27;20461;-64
2021/05/03 08:51:49;;;;;;;3.83;1.90;;;;;;;;;;5115578;28;20507;-63
2021/05/03 08:54:19;;;;;;;2.27;2.07;;;;;;;;;;5103383;28;20969;-64
2021/05/03 08:56:45;;;;;;;2.27;2.00;;;;;;;;;;5115344;27;20470;-63
2021/05/03 08:59:14;;;;;;;2.67;2.10;;;;;;;;;;5108694;27;20465;-63
2021/05/03 09:01:48;;;;;;;3.43;3.07;;;;;;;;;;5102542;27;20224;-63
2021/05/03 09:04:14;;;;;;;4.10;2.10;;;;;;;;;;5116437;27;20450;-63
2021/05/03 09:06:56;;;;;;;2.70;1.97;;;;;;;;;;5115188;27;20461;-63
2021/05/03 09:09:33;;;;;;;2.33;1.87;;;;;;;;;;5116008;27;20416;-62
2021/05/03 09:12:06;;;;;;;4.60;2.30;;;;;;;;;;5101414;27;20474;-63
2021/05/03 09:14:32;;;;;;;3.37;1.90;;;;;;;;;;5106809;27;20828;-62
2021/05/03 09:16:58;;;;;;;2.40;2.20;;;;;;;;;;5116270;27;20473;-62
2021/05/03 09:19:27;;;;;;;2.67;1.80;;;;;;;;;;5102061;27;20458;-62
2021/05/03 09:21:54;;;;;;;4.20;1.83;;;;;;;;;;5108636;27;20223;-63
2021/05/03 09:24:23;;;;;;;3.70;1.90;;;;;;;;;;5109190;27;20443;-62
2021/05/03 09:27:06;;;;;;;4.17;1.70;;;;;;;;;;5115269;27;20436;-63
2021/05/03 09:29:32;;;;;;;2.20;2.00;;;;;;;;;;5114377;27;20469;-63
2021/05/03 09:32:04;;;;;;;4.17;1.80;;;;;;;;;;5115969;27;20462;-63
2021/05/03 09:34:49;;;;;;;2.40;1.67;;;;;;;;;;5109911;27;20429;-63
2021/05/03 09:37:21;;;;;;;4.20;2.63;;;;;;;;;;5110059;27;20460;-62
2021/05/03 09:39:58;;;;;;;2.33;1.97;;;;;;;;;;5116611;28;20463;-62
2021/05/03 09:42:24;;;;;;;3.17;2.20;;;;;;;;;;5115604;28;20945;-62
2021/05/03 09:45:03;;;;;;;4.30;1.73;;;;;;;;;;5114192;28;20472;-62
2021/05/03 09:47:28;;;;;;;2.63;1.87;;;;;;;;;;5115426;28;20424;-63
2021/05/03 09:49:54;;;;;;;3.13;2.77;;;;;;;;;;5114550;28;20542;-62
2021/05/03 09:52:19;;;;;;;2.73;2.00;;;;;;;;;;5113183;28;20219;-62
2021/05/03 09:54:44;;;;;;;2.90;2.10;;;;;;;;;;5115067;28;20215;-62
2021/05/03 09:57:11;;;;;;;2.20;1.70;;;;;;;;;;5115343;27;20216;-62
2021/05/03 09:59:50;;;;;;;2.13;1.93;;;;;;;;;;5115482;28;20223;-63
2021/05/03 10:02:20;;;;;;;3.90;2.00;;;;;;;;;;5101471;28;20460;-62
2021/05/03 10:04:51;;;;;;;3.80;2.00;;;;;;;;;;5115335;28;20463;-62
2021/05/03 10:07:19;;;;;;;2.87;1.73;;;;;;;;;;5114095;28;20437;-62
2021/05/03 10:09:54;;;;;;;2.90;2.00;;;;;;;;;;5114682;27;20520;-63
2021/05/03 10:12:20;;;;;;;2.67;1.83;;;;;;;;;;5114802;28;20662;-62
2021/05/03 10:14:46;;;;;;;5.80;2.17;;;;;;;;;;5114232;27;20977;-63
2021/05/03 10:17:13;;;;;;;3.00;1.97;;;;;;;;;;5120812;27;20695;-63
2021/05/03 10:19:38;;;;;;;2.37;2.00;;;;;;;;;;5114241;28;20448;-62
2021/05/03 10:22:04;;;;;;;3.60;1.90;;;;;;;;;;5114496;27;20441;-62
2021/05/03 10:24:29;;;;;;;3.43;2.50;;;;;;;;;;5114102;28;20265;-62
2021/05/03 10:26:55;;;;;;;4.03;2.80;;;;;;;;;;5114224;28;20234;-62
2021/05/03 10:29:40;;;;;;;5.40;2.10;;;;;;;;;;5114538;27;20230;-62
2021/05/03 10:32:06;;;;;;;7.73;2.37;;;;;;;;;;5114224;27;20210;-62
2021/05/03 10:34:42;;;;;;;6.40;2.67;;;;;;;;;;5114218;28;20431;-62
2021/05/03 10:37:34;;;;;;;2.40;2.07;;;;;;;;;;5114867;28;20527;-61
2021/05/03 10:40:02;;;;;;;2.20;2.00;;;;;;;;;;5099810;28;20480;-62
2021/05/03 10:42:28;;;;;;;4.10;2.33;;;;;;;;;;5114337;28;20440;-62
2021/05/03 10:45:14;;;;;;;5.13;2.30;;;;;;;;;;5114377;28;20495;-62
2021/05/03 10:47:43;;;;;;;2.20;2.00;;;;;;;;;;5113209;28;20232;-62
2021/05/03 10:50:24;;;;;;;2.37;1.90;;;;;;;;;;5114238;28;20434;-63
2021/05/03 10:52:49;;;;;;;2.80;1.83;;;;;;;;;;5100939;28;20464;-62
2021/05/03 10:55:16;;;;;;;4.10;2.30;;;;;;;;;;5112426;28;20774;-63
2021/05/03 10:57:41;;;;;;;1.97;1.63;;;;;;;;;;5112981;28;20226;-62
2021/05/03 11:00:09;;;;;;;2.57;2.00;;;;;;;;;;5113917;28;20669;-62
2021/05/03 11:02:34;;;;;;;2.67;2.17;;;;;;;;;;5113633;28;20225;-61
2021/05/03 11:05:25;;;;;;;2.15;1.98;;;;;;;;;;5112875;28;20423;-62
2021/05/03 11:08:05;;;;;;;2.50;2.20;;;;;;;;;;5113849;28;20258;-62
2021/05/03 11:10:57;;;;;;;2.60;2.40;;;;;;;;;;5101688;27;20460;-63
2021/05/03 11:13:37;;;;;;;2.37;1.70;;;;;;;;;;5113228;28;20460;-62
2021/05/03 11:16:31;;;;;;;2.20;1.87;;;;;;;;;;5113959;28;20508;-63
2021/05/03 11:19:28;;;;;;;2.57;1.80;;;;;;;;;;5103599;28;20469;-63
2021/05/03 11:21:54;;;;;;;2.13;1.80;;;;;;;;;;5094102;28;20928;-63
2021/05/03 11:27:05;;;;;;;2.13;1.93;;;;;;;;;;5122562;27;20470;-62
2021/05/03 11:29:57;;;;;;;2.70;1.80;;;;;;;;;;5122236;27;20455;-61
2021/05/03 11:32:16;;;;;;;3.40;1.70;;;;;;;;;;5132103;27;20430;-63
2021/05/03 11:38:17;;;;;;;2.13;1.73;;;;;;;;;;5059686;28;20297;-62
2021/05/03 11:43:55;;;;;;;2.53;1.80;;;;;;;;;;5113060;27;20467;-62
2021/05/03 11:46:30;;;;;;;6.47;3.70;;;;;;;;;;5102191;28;20766;-62
2021/05/03 11:48:57;;;;;;;2.40;1.70;;;;;;;;;;5109482;27;20471;-62
2021/05/03 11:51:22;;;;;;;2.13;2.03;;;;;;;;;;5095097;27;20460;-62
2021/05/03 11:53:48;;;;;;;2.60;2.03;;;;;;;;;;5110750;27;20775;-62
2021/05/03 11:56:25;;;;;;;4.10;1.87;;;;;;;;;;5107202;27;20218;-63
2021/05/03 11:58:52;;;;;;;3.33;2.50;;;;;;;;;;5103742;28;20217;-63
2021/05/03 12:01:19;;;;;;;1.83;1.57;;;;;;;;;;5105043;27;20487;-62
2021/05/03 12:03:50;;;;;;;1.70;1.60;;;;;;;;;;5110322;27;20472;-62
2021/05/03 12:06:38;;;;;;;2.40;2.13;;;;;;;;;;5109562;27;20437;-63
2021/05/03 12:09:12;;;;;;;2.73;2.20;;;;;;;;;;5105976;28;20485;-62
2021/05/03 12:11:39;;;;;;;2.80;1.83;;;;;;;;;;5113260;27;20478;-61
2021/05/03 12:14:05;;;;;;;2.40;2.10;;;;;;;;;;5105987;27;20943;-63
2021/05/03 12:16:38;;;;;;;2.57;2.00;;;;;;;;;;5110098;27;20530;-62
2021/05/03 12:19:15;;;;;;;3.30;1.73;;;;;;;;;;5107716;27;20461;-63
2021/05/03 12:21:40;;;;;;;3.67;2.57;;;;;;;;;;5116900;27;20431;-62
2021/05/03 12:24:19;;;;;;;3.47;1.77;;;;;;;;;;5116906;27;20471;-63
2021/05/03 12:26:58;;;;;;;3.30;2.20;;;;;;;;;;5110468;27;20295;-63
2021/05/03 12:29:25;;;;;;;2.40;2.07;;;;;;;;;;5115367;28;20523;-63
2021/05/03 12:31:51;;;;;;;2.70;2.03;;;;;;;;;;5115993;28;20936;-63
2021/05/03 12:34:26;;;;;;;1.77;1.50;;;;;;;;;;5114880;28;20469;-63
2021/05/03 12:37:14;;;;;;;2.90;1.93;;;;;;;;;;5116761;27;20532;-63
2021/05/03 12:40:04;;;;;;;3.57;2.10;;;;;;;;;;5103970;28;20556;-64
2021/05/03 12:42:35;;;;;;;6.27;2.27;;;;;;;;;;5102393;28;20481;-64
2021/05/03 12:45:04;;;;;;;3.10;2.20;;;;;;;;;;5107412;27;20523;-63
2021/05/03 12:50:22;;;;;;;2.63;1.80;;;;;;;;;;5106898;27;20532;-63
2021/05/03 12:53:23;;;;;;;4.03;3.60;;;;;;;;;;5102765;28;20426;-63
2021/05/03 12:56:03;;;;;;;3.33;2.50;;;;;;;;;;5110989;27;20445;-63
2021/05/03 12:58:40;;;;;;;5.30;3.30;;;;;;;;;;5109909;27;20467;-64
2021/05/03 13:04:04;;;;;;;2.30;2.10;;;;;;;;;;5115756;27;20531;-63
2021/05/03 13:06:44;;;;;;;4.77;3.80;;;;;;;;;;5102965;27;20554;-63
2021/05/03 13:22:33;;;;;;;3.07;2.57;;;;;;;;;;5107613;27;20511;-63
2021/05/03 13:29:09;;;;;;;2.67;2.47;;;;;;;;;;5110315;28;20463;-62
2021/05/03 13:31:36;;;;;;;5.40;2.63;;;;;;;;;;5115956;28;20494;-63
2021/05/03 13:34:04;;;;;;;2.90;2.47;;;;;;;;;;5104625;27;20776;-62
2021/05/03 13:36:30;;;;;;;3.40;2.60;;;;;;;;;;5099612;27;20454;-61
2021/05/03 13:41:48;;;;;;;3.40;2.43;;;;;;;;;;5092628;28;20221;-60
2021/05/03 13:44:16;;;;;;;3.53;2.47;;;;;;;;;;5109204;27;20799;-62
2021/05/03 13:46:41;;;;;;;2.50;2.30;;;;;;;;;;5107812;27;20465;-61
2021/05/03 13:49:07;;;;;;;4.23;3.00;;;;;;;;;;5101840;28;20438;-60
2021/05/03 13:51:32;;;;;;;6.00;3.10;;;;;;;;;;5115934;27;20216;-60
2021/05/03 13:53:58;;;;;;;4.73;4.00;;;;;;;;;;5101365;27;20552;-60
2021/05/03 13:56:23;;;;;;;4.10;3.70;;;;;;;;;;5102641;27;20230;-61
2021/05/03 13:58:49;;;;;;;5.23;4.43;;;;;;;;;;5108797;27;20614;-61
2021/05/03 14:01:14;;;;;;;4.90;4.40;;;;;;;;;;5108000;27;20689;-61
2021/05/03 14:03:40;;;;;;;5.40;4.90;;;;;;;;;;5102077;28;20548;-61
2021/05/03 14:06:07;;;;;;;5.03;4.63;;;;;;;;;;5109932;27;20561;-61
2021/05/03 14:08:33;;;;;;;5.27;4.77;;;;;;;;;;5115321;28;20248;-61
2021/05/03 14:10:58;;;;;;;5.70;5.20;;;;;;;;;;5113367;27;20788;-60
2021/05/03 14:13:24;;;;;;;5.80;5.30;;;;;;;;;;5115135;28;20521;-59
2021/05/03 14:15:50;;;;;;;7.70;5.87;;;;;;;;;;5114991;28;20622;-60
2021/05/03 14:18:16;;;;;;;5.93;5.33;;;;;;;;;;5114590;28;20313;-60
2021/05/03 14:20:41;;;;;;;6.13;5.37;;;;;;;;;;5113721;28;20461;-61
2021/05/03 14:23:06;;;;;;;7.27;5.40;;;;;;;;;;5114456;28;20221;-60
2021/05/03 14:25:34;;;;;;;6.10;4.70;;;;;;;;;;5114835;28;20298;-60
2021/05/03 14:28:02;;;;;;;5.83;5.10;;;;;;;;;;5114349;28;20672;-60
2021/05/03 14:30:40;;;;;;;5.60;5.20;;;;;;;;;;5114854;28;20432;-61
2021/05/03 14:35:43;;;;;;;6.40;5.90;;;;;;;;;;5114332;28;20560;-60
2021/05/03 14:38:09;;;;;;;5.33;4.83;;;;;;;;;;5112999;28;20524;-61
2021/05/03 14:40:35;;;;;;;4.70;4.30;;;;;;;;;;5111453;27;20210;-60
2021/05/03 14:43:03;;;;;;;6.07;5.20;;;;;;;;;;5113794;27;20224;-61
2021/05/03 14:45:33;;;;;;;6.17;5.40;;;;;;;;;;5114497;27;20258;-61
2021/05/03 14:48:20;;;;;;;4.83;4.40;;;;;;;;;;5113883;27;20476;-60
2021/05/03 14:51:09;;;;;;;5.90;5.30;;;;;;;;;;5114153;27;20512;-61
2021/05/03 14:56:18;;;;;;;7.00;5.87;;;;;;;;;;5113707;27;20508;-61
2021/05/03 14:58:44;;;;;;;5.63;5.13;;;;;;;;;;5113209;28;20506;-62
2021/05/03 15:01:09;;;;;;;8.60;6.10;;;;;;;;;;5114344;27;20218;-61
2021/05/03 15:03:34;;;;;;;6.03;5.47;;;;;;;;;;5105511;27;20298;-61
2021/05/03 15:06:01;;;;;;;8.40;6.10;;;;;;;;;;5111454;28;20221;-61
2021/05/03 15:08:28;;;;;;;6.60;6.00;;;;;;;;;;5093077;28;20222;-60
2021/05/03 15:10:53;;;;;;;6.67;6.00;;;;;;;;;;5093792;28;20495;-60
2021/05/03 15:13:22;;;;;;;5.87;5.37;;;;;;;;;;5093614;28;20527;-60
2021/05/03 15:15:59;;;;;;;7.83;6.47;;;;;;;;;;5108580;27;20213;-61
2021/05/03 15:18:39;;;;;;;6.23;5.60;;;;;;;;;;5113464;27;20438;-61
2021/05/03 15:21:31;;;;;;;9.10;6.20;;;;;;;;;;5110511;27;20448;-60
2021/05/03 15:24:00;;;;;;;5.73;5.00;;;;;;;;;;5097407;28;20791;-61
2021/05/03 15:26:29;;;;;;;6.07;5.47;;;;;;;;;;5115793;28;20431;-60
2021/05/03 15:31:30;;;;;;;6.27;5.50;;;;;;;;;;5116763;28;21124;-61
2021/05/03 15:33:55;;;;;;;6.53;5.93;;;;;;;;;;5117268;28;20462;-61
2021/05/03 15:36:21;;;;;;;7.17;6.50;;;;;;;;;;5117684;28;20480;-61
2021/05/03 15:38:47;;;;;;;6.47;5.97;;;;;;;;;;5115935;28;20220;-61
2021/05/03 15:41:15;;;;;;;12.80;9.07;;;;;;;;;;5117542;27;20267;-62
2021/05/03 15:43:42;;;;;;;9.57;6.03;;;;;;;;;;5116818;27;20438;-61
2021/05/03 15:46:07;;;;;;;6.33;5.73;;;;;;;;;;5117586;28;20899;-61